createdAt,value
2019-01-15T00:01:09.427Z,4.90
2019-01-15T00:03:39.818Z,5.00
2019-01-15T00:06:10.061Z,5.10
2019-01-15T00:08:40.274Z,5.10
2019-01-15T00:11:10.428Z,5.10
2019-01-15T00:13:40.635Z,5.10
2019-01-15T00:16:10.925Z,5.10
2019-01-15T00:18:41.142Z,5.10
2019-01-15T00:21:11.349Z,5.10
2019-01-15T00:23:41.572Z,5.00
2019-01-15T00:26:11.925Z,5.00
2019-01-15T00:28:42.143Z,5.20
2019-01-15T00:31:12.350Z,5.20
2019-01-15T00:33:42.643Z,5.20
2019-01-15T00:36:12.912Z,5.10
2019-01-15T00:38:43.221Z,5.30
2019-01-15T00:41:13.410Z,5.20
2019-01-15T00:43:43.669Z,5.20
2019-01-15T00:46:13.924Z,5.20
2019-01-15T00:48:44.233Z,5.20
2019-01-15T00:51:14.423Z,5.30
2019-01-15T00:53:44.720Z,5.30
2019-01-15T00:56:14.993Z,5.20
2019-01-15T00:58:45.223Z,5.20
2019-01-15T01:01:15.409Z,5.30
2019-01-15T01:03:45.704Z,5.30
2019-01-15T01:06:15.956Z,5.20
2019-01-15T01:08:46.223Z,5.30
2019-01-15T01:11:16.525Z,5.30
2019-01-15T01:13:46.830Z,5.40
2019-01-15T01:16:16.990Z,5.30
2019-01-15T01:18:47.189Z,5.40
2019-01-15T01:21:17.359Z,5.40
2019-01-15T01:23:47.600Z,5.50
2019-01-15T01:26:17.761Z,5.40
2019-01-15T01:28:48.038Z,5.40
2019-01-15T01:31:18.293Z,5.50
2019-01-15T01:33:48.565Z,5.40
2019-01-15T01:36:18.845Z,5.30
2019-01-15T01:38:49.033Z,5.40
2019-01-15T01:41:19.373Z,5.40
2019-01-15T01:43:49.693Z,5.40
2019-01-15T01:46:19.940Z,5.40
2019-01-15T01:48:50.205Z,5.10
2019-01-15T01:51:20.392Z,5.20
2019-01-15T01:53:50.600Z,5.30
2019-01-15T01:56:20.883Z,5.20
2019-01-15T01:58:51.211Z,5.30
2019-01-15T02:01:21.510Z,5.30
2019-01-15T02:03:51.818Z,5.20
2019-01-15T02:06:22.028Z,5.10
2019-01-15T02:08:52.233Z,5.20
2019-01-15T02:11:22.468Z,5.20
2019-01-15T02:13:52.650Z,5.10
2019-01-15T02:16:22.811Z,5.10
2019-01-15T02:18:53.261Z,5.20
2019-01-15T02:21:23.449Z,5.30
2019-01-15T02:23:53.627Z,5.30
2019-01-15T02:26:23.830Z,5.30
2019-01-15T02:28:54.117Z,5.30
2019-01-15T02:31:24.413Z,5.20
2019-01-15T02:33:54.784Z,5.20
2019-01-15T02:36:24.998Z,5.30
2019-01-15T02:38:55.270Z,5.30
2019-01-15T02:41:25.453Z,5.30
2019-01-15T02:43:55.727Z,5.20
2019-01-15T02:46:25.980Z,5.20
2019-01-15T02:48:56.175Z,5.20
2019-01-15T02:51:26.454Z,5.30
2019-01-15T02:53:56.668Z,5.30
2019-01-15T02:56:26.957Z,5.20
2019-01-15T02:58:57.246Z,5.20
2019-01-15T03:01:27.500Z,5.20
2019-01-15T03:03:57.672Z,5.20
2019-01-15T03:06:27.930Z,5.20
2019-01-15T03:08:58.092Z,5.10
2019-01-15T03:11:28.357Z,5.20
2019-01-15T03:13:58.525Z,5.20
2019-01-15T03:16:28.813Z,5.10
2019-01-15T03:18:59.084Z,5.10
2019-01-15T03:21:29.328Z,5.10
2019-01-15T03:23:59.563Z,5.00
2019-01-15T03:26:29.860Z,5.00
2019-01-15T03:29:00.121Z,5.00
2019-01-15T03:31:30.372Z,5.00
2019-01-15T03:34:00.639Z,5.00
2019-01-15T03:36:30.829Z,5.00
2019-01-15T03:39:01.101Z,5.00
2019-01-15T03:41:31.383Z,5.00
2019-01-15T03:44:01.568Z,5.20
2019-01-15T03:46:31.860Z,5.20
2019-01-15T03:49:02.152Z,5.10
2019-01-15T03:51:32.411Z,5.00
2019-01-15T03:54:02.712Z,5.10
2019-01-15T03:56:32.984Z,5.20
2019-01-15T03:59:03.236Z,5.10
2019-01-15T04:01:33.545Z,5.10
2019-01-15T04:04:03.723Z,5.20
2019-01-15T04:06:33.921Z,5.20
2019-01-15T04:09:05.926Z,5.20
2019-01-15T04:11:36.180Z,5.20
2019-01-15T04:14:06.451Z,5.20
2019-01-15T04:16:36.725Z,5.10
2019-01-15T04:19:07.008Z,5.10
2019-01-15T04:21:37.263Z,5.10
2019-01-15T04:24:07.456Z,5.10
2019-01-15T04:26:37.749Z,5.10
2019-01-15T04:29:08.053Z,5.10
2019-01-15T04:31:38.220Z,5.10
2019-01-15T04:34:08.509Z,5.00
2019-01-15T04:36:38.769Z,5.00
2019-01-15T04:39:09.749Z,5.00
2019-01-15T04:41:39.924Z,5.00
2019-01-15T04:44:10.179Z,5.10
2019-01-15T04:46:40.433Z,5.10
2019-01-15T04:49:10.713Z,5.10
2019-01-15T04:51:40.897Z,5.00
2019-01-15T04:54:11.068Z,5.10
2019-01-15T04:56:41.514Z,5.00
2019-01-15T04:59:11.743Z,5.10
2019-01-15T05:01:41.986Z,5.10
2019-01-15T05:04:12.239Z,5.10
2019-01-15T05:06:42.490Z,5.10
2019-01-15T05:09:13.740Z,5.00
2019-01-15T05:11:44.019Z,5.10
2019-01-15T05:14:14.205Z,5.00
2019-01-15T05:16:44.384Z,5.00
2019-01-15T05:19:14.656Z,5.00
2019-01-15T05:21:44.896Z,5.00
2019-01-15T05:24:15.163Z,4.90
2019-01-15T05:26:45.453Z,5.00
2019-01-15T05:29:15.728Z,4.90
2019-01-15T05:31:45.978Z,4.90
2019-01-15T05:34:16.250Z,4.90
2019-01-15T05:36:46.490Z,4.90
2019-01-15T05:39:16.784Z,4.90
2019-01-15T05:41:47.037Z,4.90
2019-01-15T05:44:17.245Z,4.90
2019-01-15T05:46:47.421Z,4.90
2019-01-15T05:49:17.703Z,4.90
2019-01-15T05:51:47.986Z,4.90
2019-01-15T05:54:18.277Z,5.00
2019-01-15T05:56:48.541Z,5.00
2019-01-15T05:59:18.717Z,5.00
2019-01-15T06:01:48.998Z,5.00
2019-01-15T06:04:19.194Z,5.00
2019-01-15T06:06:49.383Z,5.00
2019-01-15T06:09:19.654Z,5.00
2019-01-15T06:11:49.939Z,5.10
2019-01-15T06:14:20.196Z,5.10
2019-01-15T06:16:50.429Z,5.10
2019-01-15T06:19:20.714Z,5.00
2019-01-15T06:21:50.938Z,5.00
2019-01-15T06:24:21.132Z,5.00
2019-01-15T06:26:51.300Z,5.00
2019-01-15T06:29:21.639Z,5.10
2019-01-15T06:31:51.886Z,5.10
2019-01-15T06:34:22.140Z,5.00
2019-01-15T06:36:52.321Z,5.10
2019-01-15T06:39:22.541Z,5.00
2019-01-15T06:41:52.867Z,5.00
2019-01-15T06:44:23.113Z,5.10
2019-01-15T06:46:53.417Z,5.10
2019-01-15T06:49:23.780Z,5.20
2019-01-15T06:51:54.029Z,5.20
2019-01-15T06:54:24.360Z,5.10
2019-01-15T06:56:54.674Z,5.10
2019-01-15T06:59:24.977Z,5.10
2019-01-15T07:01:58.284Z,5.10
2019-01-15T07:04:28.491Z,5.00
2019-01-15T07:06:58.744Z,5.10
2019-01-15T07:09:29.017Z,5.20
2019-01-15T07:11:59.349Z,5.40
2019-01-15T07:14:29.664Z,5.60
2019-01-15T07:16:59.832Z,5.50
2019-01-15T07:19:30.061Z,5.40
2019-01-15T07:22:17.324Z,5.40
2019-01-15T07:24:47.541Z,5.30
2019-01-15T07:27:17.726Z,5.30
2019-01-15T07:29:48.005Z,5.30
2019-01-15T07:32:18.281Z,5.20
2019-01-15T07:34:48.553Z,5.10
2019-01-15T07:37:18.757Z,5.10
2019-01-15T07:39:49.028Z,5.10
2019-01-15T07:42:19.300Z,5.10
2019-01-15T07:44:49.510Z,5.10
2019-01-15T07:47:19.728Z,5.10
2019-01-15T07:49:50.010Z,5.20
2019-01-15T07:52:21.598Z,5.20
2019-01-15T07:54:51.924Z,5.20
2019-01-15T07:57:22.097Z,5.20
2019-01-15T07:59:52.404Z,5.20
2019-01-15T08:02:23.693Z,5.30
2019-01-15T08:04:54.089Z,5.40
2019-01-15T08:07:24.359Z,5.40
2019-01-15T08:09:54.583Z,5.40
2019-01-15T08:12:24.812Z,5.30
2019-01-15T08:14:54.986Z,5.30
2019-01-15T08:17:25.190Z,5.40
2019-01-15T08:19:55.466Z,5.50
2019-01-15T08:22:25.709Z,5.50
2019-01-15T08:24:55.970Z,5.50
2019-01-15T08:27:26.251Z,5.40
2019-01-15T08:29:56.442Z,5.40
2019-01-15T08:32:26.963Z,5.50
2019-01-15T08:34:57.177Z,5.50
2019-01-15T08:37:27.504Z,5.50
2019-01-15T08:39:57.693Z,5.50
2019-01-15T08:42:28.080Z,5.50
2019-01-15T08:44:58.624Z,5.50
2019-01-15T08:47:30.502Z,5.60
2019-01-15T08:50:00.756Z,5.60
2019-01-15T08:52:31.016Z,5.60
2019-01-15T08:55:01.229Z,5.60
2019-01-15T08:57:31.399Z,5.60
2019-01-15T09:00:02.205Z,5.60
2019-01-15T09:02:32.568Z,5.60
2019-01-15T09:05:02.753Z,5.70
2019-01-15T09:07:32.953Z,5.70
2019-01-15T09:10:03.250Z,5.70
2019-01-15T09:12:33.497Z,5.70
2019-01-15T09:15:04.189Z,5.90
2019-01-15T09:17:34.471Z,5.90
2019-01-15T09:20:06.629Z,5.90
2019-01-15T09:22:36.845Z,6.10
2019-01-15T09:25:07.207Z,6.10
2019-01-15T09:27:37.404Z,6.10
2019-01-15T09:30:10.497Z,6.20
2019-01-15T09:32:40.763Z,6.10
2019-01-15T09:35:11.123Z,6.10
2019-01-15T09:37:41.873Z,6.20
2019-01-15T09:40:14.183Z,6.30
2019-01-15T09:42:44.440Z,6.30
2019-01-15T09:45:16.220Z,6.40
2019-01-15T09:48:02.925Z,6.50
2019-01-15T09:50:33.513Z,6.40
2019-01-15T09:53:04.635Z,6.40
2019-01-15T09:55:35.538Z,6.60
2019-01-15T09:58:06.844Z,6.70
2019-01-15T10:00:37.148Z,6.70
2019-01-15T10:03:07.413Z,6.70
2019-01-15T10:05:37.673Z,6.80
2019-01-15T10:08:07.926Z,6.90
2019-01-15T10:10:38.262Z,6.90
2019-01-15T10:13:08.482Z,7.10
2019-01-15T10:15:38.673Z,7.30
2019-01-15T10:18:08.978Z,7.30
2019-01-15T10:20:39.237Z,7.30
2019-01-15T10:23:09.511Z,7.30
2019-01-15T10:25:40.072Z,7.30
2019-01-15T10:28:10.647Z,7.30
2019-01-15T10:31:25.041Z,7.10
2019-01-15T10:33:59.352Z,7.00
2019-01-15T10:36:28.053Z,6.90
2019-01-15T10:38:58.328Z,6.90
2019-01-15T10:41:28.495Z,7.10
2019-01-15T10:43:58.763Z,7.30
2019-01-15T10:46:32.067Z,7.10
2019-01-15T10:49:00.874Z,7.30
2019-01-15T10:51:31.053Z,7.10
2019-01-15T10:54:01.312Z,7.00
2019-01-15T10:56:31.878Z,7.30
2019-01-15T10:59:02.097Z,7.50
2019-01-15T11:01:32.347Z,7.70
2019-01-15T11:04:02.597Z,7.60
2019-01-15T11:06:32.782Z,7.60
2019-01-15T11:09:04.293Z,7.60
2019-01-15T11:11:34.447Z,7.60
2019-01-15T11:14:04.649Z,7.50
2019-01-15T11:16:34.886Z,7.60
2019-01-15T11:19:05.174Z,7.60
2019-01-15T11:21:35.416Z,7.60
2019-01-15T11:24:05.836Z,7.70
2019-01-15T11:26:36.086Z,7.70
2019-01-15T11:29:06.286Z,7.70
2019-01-15T11:31:36.453Z,7.80
2019-01-15T11:34:06.774Z,7.80
2019-01-15T11:36:36.971Z,7.80
2019-01-15T11:39:09.868Z,7.90
2019-01-15T11:41:40.149Z,7.80
2019-01-15T11:44:10.432Z,7.90
2019-01-15T11:46:40.764Z,7.80
2019-01-15T11:49:11.026Z,7.90
2019-01-15T11:51:41.290Z,8.00
2019-01-15T11:54:11.583Z,8.00
2019-01-15T11:56:41.794Z,7.90
2019-01-15T11:59:12.193Z,8.00
2019-01-15T12:01:48.948Z,8.00
2019-01-15T12:04:36.620Z,7.90
2019-01-15T12:07:40.765Z,7.90
2019-01-15T12:10:35.330Z,7.90
2019-01-15T12:13:33.612Z,8.00
2019-01-15T12:16:22.855Z,8.00
2019-01-15T12:19:12.153Z,8.00
2019-01-15T12:21:52.165Z,8.10
2019-01-15T12:24:39.740Z,8.00
2019-01-15T12:27:43.915Z,8.00
2019-01-15T12:30:33.555Z,8.00
2019-01-15T12:33:31.706Z,7.90
2019-01-15T12:36:29.742Z,7.90
2019-01-15T12:39:25.099Z,7.80
2019-01-15T12:42:20.214Z,7.80
2019-01-15T12:45:18.377Z,7.80
2019-01-15T12:48:14.933Z,7.70
2019-01-15T12:51:04.129Z,7.80
2019-01-15T12:53:59.465Z,7.80
2019-01-15T12:56:47.157Z,7.80
2019-01-15T12:59:42.173Z,7.70
2019-01-15T13:02:30.082Z,7.60
2019-01-15T13:05:19.349Z,7.70
2019-01-15T13:08:06.367Z,7.80
2019-01-15T13:10:54.036Z,7.70
2019-01-15T13:13:41.756Z,7.70
2019-01-15T13:16:29.182Z,7.90
2019-01-15T13:19:24.418Z,7.90
2019-01-15T13:22:19.657Z,8.00
2019-01-15T13:25:26.857Z,7.90
2019-01-15T13:28:14.781Z,7.80
2019-01-15T13:31:02.456Z,7.90
2019-01-15T13:34:00.465Z,7.90
2019-01-15T13:37:04.639Z,7.80
2019-01-15T13:39:49.576Z,7.80
2019-01-15T13:42:38.806Z,7.80
2019-01-15T13:45:27.311Z,7.80
2019-01-15T13:48:15.335Z,7.80
2019-01-15T13:51:13.158Z,7.80
2019-01-15T13:54:05.473Z,7.80
2019-01-15T13:56:52.254Z,7.80
2019-01-15T13:59:56.650Z,7.60
2019-01-15T14:02:41.053Z,7.50
2019-01-15T14:05:35.232Z,7.50
2019-01-15T14:08:30.440Z,7.50
2019-01-15T14:11:28.491Z,7.40
2019-01-15T14:14:27.993Z,7.40
2019-01-15T14:17:15.974Z,7.40
2019-01-15T14:19:55.576Z,7.30
2019-01-15T14:22:47.702Z,7.30
2019-01-15T14:25:36.925Z,7.30
2019-01-15T14:28:28.924Z,7.40
2019-01-15T14:31:16.527Z,7.30
2019-01-15T14:34:05.737Z,7.40
2019-01-15T14:36:58.007Z,7.40
2019-01-15T14:39:45.901Z,7.50
2019-01-15T14:42:50.002Z,7.50
2019-01-15T14:45:41.415Z,7.50
2019-01-15T14:48:30.629Z,7.40
2019-01-15T14:51:16.947Z,7.40
2019-01-15T14:54:12.221Z,7.30
2019-01-15T14:57:04.489Z,7.40
2019-01-15T15:00:05.665Z,7.40
2019-01-15T15:02:54.869Z,7.30
2019-01-15T15:05:44.128Z,7.30
2019-01-15T15:08:42.193Z,7.60
2019-01-15T15:11:37.209Z,7.60
2019-01-15T15:14:29.477Z,7.60
2019-01-15T15:17:27.536Z,7.50
2019-01-15T15:20:23.950Z,7.30
2019-01-15T15:23:11.623Z,7.30
2019-01-15T15:26:02.887Z,7.30
2019-01-15T15:29:01.044Z,7.30
2019-01-15T15:31:53.262Z,7.20
2019-01-15T15:34:40.942Z,7.20
2019-01-15T15:37:21.645Z,7.10
2019-01-15T15:40:28.804Z,7.10
2019-01-15T15:43:18.025Z,7.20
2019-01-15T15:46:11.204Z,7.20
2019-01-15T15:48:54.580Z,7.30
2019-01-15T15:51:43.258Z,7.30
2019-01-15T15:54:38.512Z,7.30
2019-01-15T15:57:33.496Z,7.30
2019-01-15T16:00:23.173Z,7.30
2019-01-15T16:03:12.493Z,7.20
2019-01-15T16:06:19.656Z,7.20
2019-01-15T16:09:07.282Z,7.10
2019-01-15T16:12:00.181Z,7.10
2019-01-15T16:14:48.053Z,7.10
2019-01-15T16:17:49.100Z,7.10
2019-01-15T16:20:37.079Z,7.10
2019-01-15T16:23:24.956Z,7.10
2019-01-15T16:26:23.047Z,7.10
2019-01-15T16:29:10.693Z,7.00
2019-01-15T16:31:58.326Z,7.10
2019-01-15T16:34:46.203Z,7.00
2019-01-15T16:37:38.448Z,7.00
2019-01-15T16:40:39.255Z,7.00
2019-01-15T16:43:27.115Z,7.00
2019-01-15T16:46:15.886Z,7.00
2019-01-15T16:49:00.414Z,7.00
2019-01-15T16:51:46.813Z,6.90
2019-01-15T16:54:26.825Z,7.00
2019-01-15T16:57:12.345Z,7.00
2019-01-15T17:00:10.739Z,7.00
2019-01-15T17:03:09.034Z,7.00
2019-01-15T17:06:04.240Z,7.00
2019-01-15T17:08:51.913Z,7.10
2019-01-15T17:11:39.539Z,7.10
2019-01-15T17:14:31.766Z,7.10
2019-01-15T17:17:19.356Z,7.00
2019-01-15T17:20:20.654Z,7.00
2019-01-15T17:23:13.065Z,6.90
2019-01-15T17:26:05.342Z,6.80
2019-01-15T17:28:50.986Z,6.90
2019-01-15T17:31:46.321Z,6.90
2019-01-15T17:34:33.988Z,6.90
2019-01-15T17:37:21.854Z,6.90
2019-01-15T17:40:14.018Z,6.90
2019-01-15T17:43:01.770Z,6.80
2019-01-15T17:45:51.012Z,6.90
2019-01-15T17:48:38.705Z,7.00
2019-01-15T17:51:33.996Z,7.00
2019-01-15T17:54:22.977Z,7.00
2019-01-15T17:57:10.670Z,6.90
2019-01-15T17:59:58.652Z,7.00
2019-01-15T18:02:48.791Z,6.90
2019-01-15T18:05:34.860Z,6.90
2019-01-15T18:08:16.989Z,7.00
2019-01-15T18:11:24.197Z,7.00
2019-01-15T18:14:12.294Z,7.00
2019-01-15T18:17:08.474Z,7.00
2019-01-15T18:19:54.023Z,7.00
2019-01-15T18:22:37.229Z,7.00
2019-01-15T18:25:35.845Z,7.00
2019-01-15T18:28:27.861Z,7.10
2019-01-15T18:31:15.505Z,7.00
2019-01-15T18:34:10.888Z,7.10
2019-01-15T18:37:00.159Z,7.10
2019-01-15T18:39:42.594Z,7.10
2019-01-15T18:42:26.073Z,7.00
2019-01-15T18:45:21.275Z,7.10
2019-01-15T18:48:28.465Z,7.00
2019-01-15T18:51:16.233Z,7.00
2019-01-15T18:54:20.274Z,6.90
2019-01-15T18:57:12.294Z,6.90
2019-01-15T19:00:04.609Z,7.00
2019-01-15T19:03:06.709Z,7.00
2019-01-15T19:06:14.153Z,7.10
2019-01-15T19:08:54.021Z,7.00
2019-01-15T19:11:32.571Z,7.10
2019-01-15T19:14:13.168Z,7.10
2019-01-15T19:17:05.551Z,7.10
2019-01-15T19:19:53.220Z,7.10
2019-01-15T19:22:42.604Z,7.10
2019-01-15T19:25:44.012Z,7.00
2019-01-15T19:28:24.100Z,7.00
2019-01-15T19:31:16.111Z,7.00
2019-01-15T19:34:09.247Z,6.90
2019-01-15T19:36:56.902Z,6.90
2019-01-15T19:39:42.223Z,7.00
2019-01-15T19:42:25.245Z,7.00
2019-01-15T19:45:12.910Z,7.00
2019-01-15T19:48:05.239Z,7.00
2019-01-15T19:50:55.717Z,7.00
2019-01-15T19:53:38.641Z,7.00
2019-01-15T19:56:42.763Z,7.10
2019-01-15T19:59:22.581Z,7.00
2019-01-15T20:02:10.217Z,6.90
2019-01-15T20:04:57.980Z,6.90
2019-01-15T20:07:50.146Z,6.90
2019-01-15T20:10:32.116Z,6.90
2019-01-15T20:13:21.424Z,7.00
2019-01-15T20:16:13.674Z,7.00
2019-01-15T20:19:01.633Z,7.00
2019-01-15T20:22:08.932Z,7.10
2019-01-15T20:24:56.496Z,7.10
2019-01-15T20:28:00.470Z,7.30
2019-01-15T20:30:49.797Z,7.30
2019-01-15T20:33:56.951Z,7.40
2019-01-15T20:36:49.289Z,7.40
2019-01-15T20:39:31.680Z,7.50
2019-01-15T20:42:28.825Z,7.40
2019-01-15T20:45:24.244Z,7.60
2019-01-15T20:48:20.595Z,7.50
2019-01-15T20:51:24.643Z,7.40
2019-01-15T20:54:12.628Z,7.40
2019-01-15T20:57:00.654Z,7.40
2019-01-15T20:59:40.700Z,7.40
2019-01-15T21:02:22.238Z,7.40
2019-01-15T21:05:17.590Z,7.50
2019-01-15T21:08:06.899Z,7.50
2019-01-15T21:10:51.604Z,7.50
2019-01-15T21:13:40.884Z,7.40
2019-01-15T21:16:30.153Z,7.50
2019-01-15T21:19:14.292Z,7.40
2019-01-15T21:22:09.371Z,7.50
2019-01-15T21:25:01.772Z,7.50
2019-01-15T21:28:03.201Z,7.50
2019-01-15T21:30:55.602Z,7.30
2019-01-15T21:33:51.631Z,7.40
2019-01-15T21:36:46.711Z,7.40
2019-01-15T21:39:51.157Z,7.40
2019-01-15T21:42:38.782Z,7.40
2019-01-15T21:45:23.221Z,7.30
2019-01-15T21:48:15.248Z,7.30
2019-01-15T21:51:03.213Z,7.30
2019-01-15T21:53:51.200Z,7.30
2019-01-15T21:56:46.285Z,7.40
2019-01-15T21:59:34.296Z,7.30
2019-01-15T22:02:25.301Z,7.20
2019-01-15T22:05:13.068Z,7.10
2019-01-15T22:08:01.050Z,7.30
2019-01-15T22:10:50.293Z,7.30
2019-01-15T22:13:42.301Z,7.30
2019-01-15T22:16:24.438Z,7.20
2019-01-15T22:19:16.549Z,7.20
2019-01-15T22:22:04.159Z,7.10
2019-01-15T22:25:02.193Z,7.10
2019-01-15T22:28:03.616Z,7.20
2019-01-15T22:31:10.832Z,7.30
2019-01-15T22:33:54.065Z,7.20
2019-01-15T22:36:46.953Z,7.10
2019-01-15T22:39:41.890Z,7.10
2019-01-15T22:42:34.130Z,7.20
2019-01-15T22:45:23.796Z,7.30
2019-01-15T22:48:12.151Z,7.20
2019-01-15T22:50:59.753Z,7.30
2019-01-15T22:53:47.192Z,7.20
2019-01-15T22:56:36.447Z,7.30
2019-01-15T22:59:24.191Z,7.20
2019-01-15T23:02:08.890Z,7.30
2019-01-15T23:05:00.949Z,7.20
2019-01-15T23:07:50.213Z,7.20
2019-01-15T23:10:37.856Z,7.30
2019-01-15T23:13:25.782Z,7.30
2019-01-15T23:16:13.182Z,7.20
2019-01-15T23:19:08.284Z,7.20
2019-01-15T23:22:01.516Z,7.10
2019-01-15T23:24:52.868Z,7.20
2019-01-15T23:27:54.018Z,7.20
2019-01-15T23:30:41.028Z,7.10
2019-01-15T23:33:26.464Z,7.20
2019-01-15T23:36:21.493Z,7.20
2019-01-15T23:39:09.111Z,7.10
2019-01-15T23:41:56.685Z,7.20
2019-01-15T23:44:48.412Z,7.10
2019-01-15T23:47:39.449Z,7.10
2019-01-15T23:50:41.228Z,7.20
2019-01-15T23:53:42.619Z,7.20
2019-01-15T23:56:40.631Z,7.20
2019-01-15T23:59:36.035Z,7.10
